sensor_id;sensor_type;location;lat;lon;timestamp;pressure;altitude;pressure_sealevel;temperature;humidity
54978;BME280;40873;47.522;19.106;2023-02-28T00:01:05;101462.75;;;0.40;69.20
54978;BME280;40873;47.522;19.106;2023-02-28T00:03:32;101463.63;;;0.39;68.96
54978;BME280;40873;47.522;19.106;2023-02-28T00:06:03;101463.63;;;0.37;68.85
54978;BME280;40873;47.522;19.106;2023-02-28T00:08:31;101463.63;;;0.39;68.66
54978;BME280;40873;47.522;19.106;2023-02-28T00:11:06;101472.25;;;0.47;68.48
54978;BME280;40873;47.522;19.106;2023-02-28T00:13:35;101469.66;;;0.64;68.03
54978;BME280;40873;47.522;19.106;2023-02-28T00:16:06;101482.66;;;0.58;69.00
54978;BME280;40873;47.522;19.106;2023-02-28T00:18:35;101482.66;;;0.47;68.69
54978;BME280;40873;47.522;19.106;2023-02-28T00:21:02;101485.25;;;0.44;68.71
54978;BME280;40873;47.522;19.106;2023-02-28T00:23:29;101486.13;;;0.49;69.13
54978;BME280;40873;47.522;19.106;2023-02-28T00:25:56;101491.31;;;0.46;69.35
54978;BME280;40873;47.522;19.106;2023-02-28T00:28:23;101486.13;;;0.37;69.74
54978;BME280;40873;47.522;19.106;2023-02-28T00:30:50;101487.88;;;0.36;70.07
54978;BME280;40873;47.522;19.106;2023-02-28T00:33:18;101493.03;;;0.35;70.92
54978;BME280;40873;47.522;19.106;2023-02-28T00:35:45;101487.00;;;0.36;70.82
54978;BME280;40873;47.522;19.106;2023-02-28T00:38:16;101489.56;;;0.40;70.29
54978;BME280;40873;47.522;19.106;2023-02-28T00:40:43;101491.31;;;0.38;70.66
54978;BME280;40873;47.522;19.106;2023-02-28T00:43:10;101499.13;;;0.49;70.41
54978;BME280;40873;47.522;19.106;2023-02-28T00:45:37;101502.59;;;0.42;71.22
54978;BME280;40873;47.522;19.106;2023-02-28T00:48:04;101499.97;;;0.46;70.66
54978;BME280;40873;47.522;19.106;2023-02-28T00:50:31;101496.53;;;0.49;70.73
54978;BME280;40873;47.522;19.106;2023-02-28T00:52:58;101493.91;;;0.40;71.65
54978;BME280;40873;47.522;19.106;2023-02-28T00:55:25;101499.09;;;0.44;71.16
54978;BME280;40873;47.522;19.106;2023-02-28T00:57:52;101493.91;;;0.46;71.88
54978;BME280;40873;47.522;19.106;2023-02-28T01:00:19;101492.16;;;0.55;71.06
54978;BME280;40873;47.522;19.106;2023-02-28T01:02:46;101495.63;;;0.59;71.69
54978;BME280;40873;47.522;19.106;2023-02-28T01:05:13;101499.97;;;0.52;71.71
54978;BME280;40873;47.522;19.106;2023-02-28T01:07:40;101509.50;;;0.52;72.30
54978;BME280;40873;47.522;19.106;2023-02-28T01:10:08;101494.75;;;0.54;72.68
54978;BME280;40873;47.522;19.106;2023-02-28T01:12:35;101499.94;;;0.55;71.98
54978;BME280;40873;47.522;19.106;2023-02-28T01:15:02;101495.66;;;0.56;72.16
54978;BME280;40873;47.522;19.106;2023-02-28T01:17:29;101496.50;;;0.57;72.25
54978;BME280;40873;47.522;19.106;2023-02-28T01:19:56;101500.81;;;0.62;73.00
54978;BME280;40873;47.522;19.106;2023-02-28T01:22:23;101502.56;;;0.65;72.34
54978;BME280;40873;47.522;19.106;2023-02-28T01:24:50;101500.81;;;0.62;72.93
54978;BME280;40873;47.522;19.106;2023-02-28T01:27:17;101496.50;;;0.63;72.38
54978;BME280;40873;47.522;19.106;2023-02-28T01:29:44;101505.16;;;0.63;72.66
54978;BME280;40873;47.522;19.106;2023-02-28T01:32:11;101500.81;;;0.62;72.67
54978;BME280;40873;47.522;19.106;2023-02-28T01:34:38;101499.09;;;0.61;73.05
54978;BME280;40873;47.522;19.106;2023-02-28T01:37:05;101494.75;;;0.71;72.50
54978;BME280;40873;47.522;19.106;2023-02-28T01:39:32;101505.16;;;0.65;72.51
54978;BME280;40873;47.522;19.106;2023-02-28T01:41:59;101505.13;;;0.69;72.36
54978;BME280;40873;47.522;19.106;2023-02-28T01:44:58;101506.88;;;0.67;72.15
54978;BME280;40873;47.522;19.106;2023-02-28T01:47:32;101505.16;;;0.66;72.49
54978;BME280;40873;47.522;19.106;2023-02-28T01:50:02;101496.47;;;0.69;72.45
54978;BME280;40873;47.522;19.106;2023-02-28T01:52:31;101500.81;;;0.68;71.83
54978;BME280;40873;47.522;19.106;2023-02-28T01:55:00;101493.91;;;0.70;72.71
54978;BME280;40873;47.522;19.106;2023-02-28T01:57:32;101498.22;;;0.62;73.35
54978;BME280;40873;47.522;19.106;2023-02-28T02:00:16;101503.41;;;0.65;72.31
54978;BME280;40873;47.522;19.106;2023-02-28T02:02:46;101497.34;;;0.66;71.27
54978;BME280;40873;47.522;19.106;2023-02-28T02:05:20;101492.13;;;0.69;71.86
54978;BME280;40873;47.522;19.106;2023-02-28T02:07:49;101490.41;;;0.74;71.75
54978;BME280;40873;47.522;19.106;2023-02-28T02:10:27;101492.16;;;0.77;70.93
54978;BME280;40873;47.522;19.106;2023-02-28T02:18:32;101496.50;;;0.66;70.97
54978;BME280;40873;47.522;19.106;2023-02-28T02:40:27;101488.69;;;0.61;72.12
54978;BME280;40873;47.522;19.106;2023-02-28T02:43:11;101488.72;;;0.64;71.55
54978;BME280;40873;47.522;19.106;2023-02-28T02:46:08;101493.88;;;0.61;71.57
54978;BME280;40873;47.522;19.106;2023-02-28T02:48:35;101499.94;;;0.54;72.29
54978;BME280;40873;47.522;19.106;2023-02-28T02:51:07;101499.97;;;0.57;72.42
54978;BME280;40873;47.522;19.106;2023-02-28T02:53:45;101496.53;;;0.49;73.39
54978;BME280;40873;47.522;19.106;2023-02-28T02:56:22;101493.03;;;0.54;72.45
54978;BME280;40873;47.522;19.106;2023-02-28T02:58:51;101498.25;;;0.58;73.30
54978;BME280;40873;47.522;19.106;2023-02-28T03:01:22;101494.75;;;0.55;72.78
54978;BME280;40873;47.522;19.106;2023-02-28T03:04:02;101494.75;;;0.62;72.94
54978;BME280;40873;47.522;19.106;2023-02-28T03:06:29;101499.09;;;0.63;72.46
54978;BME280;40873;47.522;19.106;2023-02-28T03:08:56;101491.28;;;0.61;72.50
54978;BME280;40873;47.522;19.106;2023-02-28T03:11:23;101493.91;;;0.60;72.38
54978;BME280;40873;47.522;19.106;2023-02-28T03:13:55;101498.22;;;0.59;71.24
54978;BME280;40873;47.522;19.106;2023-02-28T03:19:24;101505.16;;;0.59;72.61
54978;BME280;40873;47.522;19.106;2023-02-28T03:24:56;101502.56;;;0.71;70.35
54978;BME280;40873;47.522;19.106;2023-02-28T03:30:29;101503.38;;;0.76;69.80
54978;BME280;40873;47.522;19.106;2023-02-28T03:33:27;101513.81;;;0.71;70.28
54978;BME280;40873;47.522;19.106;2023-02-28T03:36:00;101506.88;;;0.72;70.05
54978;BME280;40873;47.522;19.106;2023-02-28T03:38:48;101510.34;;;0.71;69.85
54978;BME280;40873;47.522;19.106;2023-02-28T03:41:23;101502.56;;;0.65;70.87
54978;BME280;40873;47.522;19.106;2023-02-28T03:44:25;101511.19;;;0.67;70.77
54978;BME280;40873;47.522;19.106;2023-02-28T03:47:06;101502.53;;;0.72;70.45
54978;BME280;40873;47.522;19.106;2023-02-28T03:49:40;101499.06;;;0.78;70.01
54978;BME280;40873;47.522;19.106;2023-02-28T03:52:10;101506.00;;;0.71;69.52
54978;BME280;40873;47.522;19.106;2023-02-28T03:54:43;101507.72;;;0.69;69.87
54978;BME280;40873;47.522;19.106;2023-02-28T04:00:15;101507.75;;;0.63;70.84
54978;BME280;40873;47.522;19.106;2023-02-28T04:02:44;101502.56;;;0.63;71.15
54978;BME280;40873;47.522;19.106;2023-02-28T04:05:11;101502.56;;;0.65;70.42
54978;BME280;40873;47.522;19.106;2023-02-28T04:07:38;101501.69;;;0.70;70.26
54978;BME280;40873;47.522;19.106;2023-02-28T04:10:06;101502.53;;;0.68;69.44
54978;BME280;40873;47.522;19.106;2023-02-28T04:12:33;101502.53;;;0.66;69.03
54978;BME280;40873;47.522;19.106;2023-02-28T04:15:00;101497.34;;;0.69;69.99
54978;BME280;40873;47.522;19.106;2023-02-28T04:17:27;101495.63;;;0.67;69.40
54978;BME280;40873;47.522;19.106;2023-02-28T04:19:54;101490.41;;;0.68;69.92
54978;BME280;40873;47.522;19.106;2023-02-28T04:22:24;101498.19;;;0.80;69.24
54978;BME280;40873;47.522;19.106;2023-02-28T04:24:53;101488.66;;;0.76;69.09
54978;BME280;40873;47.522;19.106;2023-02-28T04:27:21;101488.69;;;0.73;68.53
54978;BME280;40873;47.522;19.106;2023-02-28T04:29:48;101494.75;;;0.74;67.73
54978;BME280;40873;47.522;19.106;2023-02-28T04:32:15;101486.94;;;0.74;67.63
54978;BME280;40873;47.522;19.106;2023-02-28T04:34:42;101485.22;;;0.68;67.46
54978;BME280;40873;47.522;19.106;2023-02-28T04:37:09;101489.56;;;0.71;67.45
54978;BME280;40873;47.522;19.106;2023-02-28T04:39:40;101486.09;;;0.70;68.11
54978;BME280;40873;47.522;19.106;2023-02-28T04:42:08;101490.41;;;0.73;67.30
54978;BME280;40873;47.522;19.106;2023-02-28T04:44:35;101483.47;;;0.76;66.88
54978;BME280;40873;47.522;19.106;2023-02-28T04:47:02;101490.44;;;0.70;65.99
54978;BME280;40873;47.522;19.106;2023-02-28T04:49:29;101488.66;;;0.75;65.56
54978;BME280;40873;47.522;19.106;2023-02-28T04:51:56;101480.03;;;0.71;66.07
54978;BME280;40873;47.522;19.106;2023-02-28T04:54:23;101485.22;;;0.74;65.66
54978;BME280;40873;47.522;19.106;2023-02-28T04:56:50;101482.63;;;0.71;65.84
54978;BME280;40873;47.522;19.106;2023-02-28T04:59:17;101492.16;;;0.72;65.75
54978;BME280;40873;47.522;19.106;2023-02-28T05:01:48;101483.47;;;0.73;65.76
54978;BME280;40873;47.522;19.106;2023-02-28T05:04:16;101480.91;;;0.72;65.14
54978;BME280;40873;47.522;19.106;2023-02-28T05:06:44;101485.22;;;0.79;64.68
54978;BME280;40873;47.522;19.106;2023-02-28T05:09:11;101490.38;;;0.82;64.78
54978;BME280;40873;47.522;19.106;2023-02-28T05:11:39;101484.38;;;0.77;66.40
54978;BME280;40873;47.522;19.106;2023-02-28T05:14:10;101495.59;;;0.80;65.00
54978;BME280;40873;47.522;19.106;2023-02-28T05:16:38;101493.03;;;0.71;65.32
54978;BME280;40873;47.522;19.106;2023-02-28T05:19:05;101499.94;;;0.71;65.89
54978;BME280;40873;47.522;19.106;2023-02-28T05:21:38;101497.31;;;0.75;65.94
54978;BME280;40873;47.522;19.106;2023-02-28T05:24:11;101496.47;;;0.78;65.29
54978;BME280;40873;47.522;19.106;2023-02-28T05:26:39;101504.28;;;0.78;65.90
54978;BME280;40873;47.522;19.106;2023-02-28T05:29:07;101501.66;;;0.81;65.18
54978;BME280;40873;47.522;19.106;2023-02-28T05:31:34;101495.63;;;0.77;65.05
54978;BME280;40873;47.522;19.106;2023-02-28T05:34:02;101500.78;;;0.76;66.33
54978;BME280;40873;47.522;19.106;2023-02-28T05:36:31;101500.78;;;0.74;66.90
54978;BME280;40873;47.522;19.106;2023-02-28T05:38:58;101500.81;;;0.68;66.64
54978;BME280;40873;47.522;19.106;2023-02-28T05:41:25;101508.59;;;0.68;66.55
54978;BME280;40873;47.522;19.106;2023-02-28T05:43:53;101509.47;;;0.72;66.71
54978;BME280;40873;47.522;19.106;2023-02-28T05:46:20;101502.53;;;0.77;66.26
54978;BME280;40873;47.522;19.106;2023-02-28T05:48:47;101504.25;;;0.81;66.26
54978;BME280;40873;47.522;19.106;2023-02-28T05:51:16;101510.31;;;0.83;66.77
54978;BME280;40873;47.522;19.106;2023-02-28T05:53:43;101505.09;;;0.92;66.04
54978;BME280;40873;47.522;19.106;2023-02-28T05:56:12;101512.91;;;0.91;65.16
54978;BME280;40873;47.522;19.106;2023-02-28T05:58:39;101520.72;;;0.91;64.91
54978;BME280;40873;47.522;19.106;2023-02-28T06:01:38;101518.94;;;0.97;65.48
54978;BME280;40873;47.522;19.106;2023-02-28T06:04:07;101521.53;;;1.00;64.67
54978;BME280;40873;47.522;19.106;2023-02-28T06:06:48;101521.53;;;1.02;65.51
54978;BME280;40873;47.522;19.106;2023-02-28T06:09:16;101526.72;;;1.03;66.01
54978;BME280;40873;47.522;19.106;2023-02-28T06:11:44;101530.16;;;1.15;65.28
54978;BME280;40873;47.522;19.106;2023-02-28T06:14:16;101531.91;;;1.08;63.88
54978;BME280;40873;47.522;19.106;2023-02-28T06:16:43;101537.09;;;1.09;65.12
54978;BME280;40873;47.522;19.106;2023-02-28T06:19:10;101531.88;;;1.17;65.55
54978;BME280;40873;47.522;19.106;2023-02-28T06:21:38;101537.94;;;1.21;63.92
54978;BME280;40873;47.522;19.106;2023-02-28T06:24:05;101535.31;;;1.28;64.42
54978;BME280;40873;47.522;19.106;2023-02-28T06:26:32;101540.53;;;1.27;62.88
54978;BME280;40873;47.522;19.106;2023-02-28T06:28:59;101533.59;;;1.26;63.74
54978;BME280;40873;47.522;19.106;2023-02-28T06:31:27;101535.34;;;1.25;63.09
54978;BME280;40873;47.522;19.106;2023-02-28T06:33:56;101537.09;;;1.08;63.54
54978;BME280;40873;47.522;19.106;2023-02-28T06:36:23;101535.34;;;1.16;63.49
54978;BME280;40873;47.522;19.106;2023-02-28T06:38:50;101536.16;;;1.40;64.70
54978;BME280;40873;47.522;19.106;2023-02-28T06:41:24;101545.69;;;1.34;62.84
54978;BME280;40873;47.522;19.106;2023-02-28T06:43:52;101541.34;;;1.41;62.33
54978;BME280;40873;47.522;19.106;2023-02-28T06:46:20;101548.25;;;1.44;61.56
54978;BME280;40873;47.522;19.106;2023-02-28T06:48:47;101550.06;;;1.32;62.22
54978;BME280;40873;47.522;19.106;2023-02-28T06:51:17;101554.34;;;1.43;62.25
54978;BME280;40873;47.522;19.106;2023-02-28T06:53:49;101548.28;;;1.36;62.00
54978;BME280;40873;47.522;19.106;2023-02-28T06:56:17;101553.47;;;1.39;62.45
54978;BME280;40873;47.522;19.106;2023-02-28T06:58:50;101542.19;;;1.45;62.09
54978;BME280;40873;47.522;19.106;2023-02-28T07:01:20;101537.81;;;1.57;60.94
54978;BME280;40873;47.522;19.106;2023-02-28T07:03:49;101550.78;;;1.59;61.64
54978;BME280;40873;47.522;19.106;2023-02-28T07:06:20;101553.34;;;1.71;62.39
54978;BME280;40873;47.522;19.106;2023-02-28T07:08:52;101548.06;;;1.89;61.56
54978;BME280;40873;47.522;19.106;2023-02-28T07:11:22;101550.63;;;1.97;61.22
54978;BME280;40873;47.522;19.106;2023-02-28T07:13:49;101551.47;;;2.02;61.63
54978;BME280;40873;47.522;19.106;2023-02-28T07:16:18;101550.53;;;2.08;60.77
54978;BME280;40873;47.522;19.106;2023-02-28T07:18:45;101560.97;;;2.05;59.62
54978;BME280;40873;47.522;19.106;2023-02-28T07:21:12;101557.41;;;2.23;60.58
54978;BME280;40873;47.522;19.106;2023-02-28T07:23:39;101564.19;;;2.45;59.93
54978;BME280;40873;47.522;19.106;2023-02-28T07:26:11;101558.94;;;2.48;59.60
54978;BME280;40873;47.522;19.106;2023-02-28T07:28:41;101568.41;;;2.60;59.25
54978;BME280;40873;47.522;19.106;2023-02-28T07:31:09;101565.75;;;2.66;58.58
54978;BME280;40873;47.522;19.106;2023-02-28T07:33:37;101566.66;;;2.62;57.90
54978;BME280;40873;47.522;19.106;2023-02-28T07:36:06;101562.34;;;2.58;57.95
54978;BME280;40873;47.522;19.106;2023-02-28T07:38:37;101569.16;;;2.71;58.67
54978;BME280;40873;47.522;19.106;2023-02-28T07:41:04;101564.78;;;2.79;57.53
54978;BME280;40873;47.522;19.106;2023-02-28T07:43:32;101571.66;;;2.85;58.50
54978;BME280;40873;47.522;19.106;2023-02-28T07:46:05;101571.59;;;2.91;58.34
54978;BME280;40873;47.522;19.106;2023-02-28T07:48:32;101570.59;;;3.06;58.11
54978;BME280;40873;47.522;19.106;2023-02-28T07:50:59;101568.78;;;3.14;57.72
54978;BME280;40873;47.522;19.106;2023-02-28T07:53:28;101579.22;;;3.14;56.31
54978;BME280;40873;47.522;19.106;2023-02-28T07:55:59;101569.72;;;3.07;56.49
54978;BME280;40873;47.522;19.106;2023-02-28T07:58:28;101566.06;;;3.23;55.86
54978;BME280;40873;47.522;19.106;2023-02-28T08:00:56;101568.06;;;2.99;57.00
54978;BME280;40873;47.522;19.106;2023-02-28T08:03:24;101574.09;;;3.06;56.51
54978;BME280;40873;47.522;19.106;2023-02-28T08:05:51;101566.28;;;3.01;57.40
54978;BME280;40873;47.522;19.106;2023-02-28T08:08:19;101572.19;;;3.20;56.69
54978;BME280;40873;47.522;19.106;2023-02-28T08:10:46;101568.56;;;3.35;56.49
54978;BME280;40873;47.522;19.106;2023-02-28T08:13:13;101568.56;;;3.32;56.21
54978;BME280;40873;47.522;19.106;2023-02-28T08:15:41;101564.22;;;3.34;56.10
54978;BME280;40873;47.522;19.106;2023-02-28T08:18:09;101571.94;;;3.40;55.47
54978;BME280;40873;47.522;19.106;2023-02-28T08:20:37;101570.75;;;3.67;54.22
54978;BME280;40873;47.522;19.106;2023-02-28T08:23:03;101570.97;;;3.52;54.14
54978;BME280;40873;47.522;19.106;2023-02-28T08:25:30;101559.50;;;3.65;55.07
54978;BME280;40873;47.522;19.106;2023-02-28T08:27:57;101563.47;;;3.94;53.69
54978;BME280;40873;47.522;19.106;2023-02-28T08:30:24;101560.63;;;4.10;54.09
54978;BME280;40873;47.522;19.106;2023-02-28T08:32:51;101563.94;;;4.22;52.48
54978;BME280;40873;47.522;19.106;2023-02-28T08:35:18;101566.63;;;4.16;53.16
54978;BME280;40873;47.522;19.106;2023-02-28T08:37:47;101564.63;;;4.34;53.81
54978;BME280;40873;47.522;19.106;2023-02-28T08:40:15;101562.88;;;4.35;51.01
54978;BME280;40873;47.522;19.106;2023-02-28T08:42:45;101566.38;;;4.34;52.81
54978;BME280;40873;47.522;19.106;2023-02-28T08:45:14;101572.84;;;4.64;52.54
54978;BME280;40873;47.522;19.106;2023-02-28T08:47:41;101570.25;;;4.64;51.79
54978;BME280;40873;47.522;19.106;2023-02-28T08:50:08;101574.22;;;4.86;50.73
54978;BME280;40873;47.522;19.106;2023-02-28T08:52:35;101566.19;;;4.97;49.32
54978;BME280;40873;47.522;19.106;2023-02-28T08:55:03;101570.56;;;4.97;49.13
54978;BME280;40873;47.522;19.106;2023-02-28T08:57:29;101564.84;;;5.24;49.32
54978;BME280;40873;47.522;19.106;2023-02-28T08:59:57;101563.59;;;5.42;51.06
54978;BME280;40873;47.522;19.106;2023-02-28T09:02:23;101555.47;;;5.57;47.83
54978;BME280;40873;47.522;19.106;2023-02-28T09:04:51;101566.28;;;5.39;48.31
54978;BME280;40873;47.522;19.106;2023-02-28T09:07:17;101568.16;;;5.32;49.01
54978;BME280;40873;47.522;19.106;2023-02-28T09:09:45;101563.00;;;5.28;49.17
54978;BME280;40873;47.522;19.106;2023-02-28T09:12:22;101554.31;;;5.70;49.12
54978;BME280;40873;47.522;19.106;2023-02-28T09:14:49;101563.91;;;5.70;48.82
54978;BME280;40873;47.522;19.106;2023-02-28T09:17:16;101563.47;;;5.48;49.46
54978;BME280;40873;47.522;19.106;2023-02-28T09:19:43;101567.69;;;5.57;48.41
54978;BME280;40873;47.522;19.106;2023-02-28T09:22:11;101562.28;;;5.64;49.92
54978;BME280;40873;47.522;19.106;2023-02-28T09:24:38;101562.88;;;5.78;49.56
54978;BME280;40873;47.522;19.106;2023-02-28T09:27:06;101567.41;;;5.70;49.16
54978;BME280;40873;47.522;19.106;2023-02-28T09:29:34;101564.16;;;5.13;51.03
54978;BME280;40873;47.522;19.106;2023-02-28T09:32:01;101567.38;;;5.27;55.66
54978;BME280;40873;47.522;19.106;2023-02-28T09:34:29;101575.78;;;5.44;56.49
54978;BME280;40873;47.522;19.106;2023-02-28T09:36:57;101574.75;;;5.52;54.13
54978;BME280;40873;47.522;19.106;2023-02-28T09:39:24;101572.81;;;5.61;50.86
54978;BME280;40873;47.522;19.106;2023-02-28T09:41:54;101574.72;;;5.53;49.91
54978;BME280;40873;47.522;19.106;2023-02-28T09:44:30;101568.78;;;5.45;50.75
54978;BME280;40873;47.522;19.106;2023-02-28T09:47:07;101559.06;;;5.52;49.59
54978;BME280;40873;47.522;19.106;2023-02-28T09:49:40;101564.00;;;5.22;51.21
54978;BME280;40873;47.522;19.106;2023-02-28T09:52:20;101563.19;;;5.18;50.49
54978;BME280;40873;47.522;19.106;2023-02-28T09:54:48;101566.03;;;5.06;49.76
54978;BME280;40873;47.522;19.106;2023-02-28T10:02:49;101567.09;;;5.41;50.89
54978;BME280;40873;47.522;19.106;2023-02-28T10:05:24;101562.16;;;5.70;50.49
54978;BME280;40873;47.522;19.106;2023-02-28T10:08:11;101555.91;;;5.77;50.22
54978;BME280;40873;47.522;19.106;2023-02-28T10:10:43;101550.88;;;5.67;48.61
54978;BME280;40873;47.522;19.106;2023-02-28T10:16:00;101560.13;;;5.85;49.80
54978;BME280;40873;47.522;19.106;2023-02-28T10:18:34;101554.31;;;6.11;48.75
54978;BME280;40873;47.522;19.106;2023-02-28T10:21:05;101548.53;;;6.35;48.52
54978;BME280;40873;47.522;19.106;2023-02-28T10:23:37;101544.31;;;6.64;49.80
54978;BME280;40873;47.522;19.106;2023-02-28T10:26:16;101548.44;;;6.74;48.29
54978;BME280;40873;47.522;19.106;2023-02-28T10:28:44;101537.38;;;6.97;48.35
54978;BME280;40873;47.522;19.106;2023-02-28T10:31:20;101545.47;;;7.20;47.33
54978;BME280;40873;47.522;19.106;2023-02-28T10:33:48;101529.50;;;6.97;47.42
54978;BME280;40873;47.522;19.106;2023-02-28T10:36:18;101541.31;;;6.79;47.23
54978;BME280;40873;47.522;19.106;2023-02-28T10:38:46;101531.16;;;6.65;47.75
54978;BME280;40873;47.522;19.106;2023-02-28T10:41:28;101523.75;;;6.81;47.60
54978;BME280;40873;47.522;19.106;2023-02-28T10:44:14;101517.28;;;6.94;47.76
54978;BME280;40873;47.522;19.106;2023-02-28T10:46:45;101520.56;;;7.04;47.12
54978;BME280;40873;47.522;19.106;2023-02-28T10:49:15;101518.53;;;7.13;47.83
54978;BME280;40873;47.522;19.106;2023-02-28T10:51:44;101514.44;;;7.34;46.74
54978;BME280;40873;47.522;19.106;2023-02-28T10:54:33;101510.97;;;7.01;47.40
54978;BME280;40873;47.522;19.106;2023-02-28T10:57:28;101512.69;;;7.04;48.14
54978;BME280;40873;47.522;19.106;2023-02-28T11:00:13;101511.19;;;6.94;48.58
54978;BME280;40873;47.522;19.106;2023-02-28T11:02:41;101511.50;;;6.81;48.33
54978;BME280;40873;47.522;19.106;2023-02-28T11:05:31;101507.16;;;6.80;48.14
54978;BME280;40873;47.522;19.106;2023-02-28T11:08:19;101508.06;;;6.10;49.50
54978;BME280;40873;47.522;19.106;2023-02-28T11:10:48;101511.22;;;5.84;50.30
54978;BME280;40873;47.522;19.106;2023-02-28T11:13:21;101512.97;;;6.23;51.08
54978;BME280;40873;47.522;19.106;2023-02-28T11:15:53;101515.31;;;6.36;50.73
54978;BME280;40873;47.522;19.106;2023-02-28T11:18:36;101515.28;;;6.71;51.30
54978;BME280;40873;47.522;19.106;2023-02-28T11:21:05;101509.19;;;6.71;49.99
54978;BME280;40873;47.522;19.106;2023-02-28T11:23:34;101504.38;;;6.86;48.92
54978;BME280;40873;47.522;19.106;2023-02-28T11:26:04;101501.06;;;6.80;48.62
54978;BME280;40873;47.522;19.106;2023-02-28T11:28:41;101501.53;;;6.96;50.06
54978;BME280;40873;47.522;19.106;2023-02-28T11:33:47;101500.16;;;6.81;49.39
54978;BME280;40873;47.522;19.106;2023-02-28T11:38:48;101498.75;;;6.69;49.78
54978;BME280;40873;47.522;19.106;2023-02-28T11:41:31;101498.94;;;6.60;50.46
54978;BME280;40873;47.522;19.106;2023-02-28T12:14:44;101468.50;;;8.07;46.44
54978;BME280;40873;47.522;19.106;2023-02-28T12:17:45;101466.06;;;7.99;48.09
54978;BME280;40873;47.522;19.106;2023-02-28T12:25:55;101465.22;;;8.53;47.10
54978;BME280;40873;47.522;19.106;2023-02-28T12:28:31;101454.22;;;9.15;45.42
54978;BME280;40873;47.522;19.106;2023-02-28T12:31:06;101442.34;;;8.55;47.01
54978;BME280;40873;47.522;19.106;2023-02-28T12:33:40;101443.22;;;8.56;46.22
54978;BME280;40873;47.522;19.106;2023-02-28T12:36:12;101445.47;;;8.91;46.43
54978;BME280;40873;47.522;19.106;2023-02-28T12:38:47;101448.91;;;8.43;46.41
54978;BME280;40873;47.522;19.106;2023-02-28T12:41:33;101442.78;;;9.16;45.79
54978;BME280;40873;47.522;19.106;2023-02-28T12:44:09;101439.66;;;9.75;44.88
54978;BME280;40873;47.522;19.106;2023-02-28T12:46:42;101431.31;;;9.86;43.24
54978;BME280;40873;47.522;19.106;2023-02-28T12:49:19;101435.97;;;9.11;45.45
54978;BME280;40873;47.522;19.106;2023-02-28T12:51:50;101427.38;;;9.29;44.82
54978;BME280;40873;47.522;19.106;2023-02-28T12:54:25;101435.75;;;9.17;45.75
54978;BME280;40873;47.522;19.106;2023-02-28T12:57:25;101436.53;;;8.95;45.48
54978;BME280;40873;47.522;19.106;2023-02-28T12:59:59;101438.97;;;8.51;47.71
54978;BME280;40873;47.522;19.106;2023-02-28T13:02:44;101424.53;;;8.63;46.56
54978;BME280;40873;47.522;19.106;2023-02-28T13:10:58;101424.63;;;8.85;46.40
54978;BME280;40873;47.522;19.106;2023-02-28T13:13:29;101426.59;;;8.29;47.56
54978;BME280;40873;47.522;19.106;2023-02-28T13:16:09;101433.84;;;8.20;48.01
54978;BME280;40873;47.522;19.106;2023-02-28T13:18:45;101421.53;;;8.49;47.39
54978;BME280;40873;47.522;19.106;2023-02-28T13:29:00;101421.00;;;8.64;48.94
54978;BME280;40873;47.522;19.106;2023-02-28T13:31:28;101415.72;;;8.64;47.32
54978;BME280;40873;47.522;19.106;2023-02-28T13:36:30;101412.91;;;8.17;48.50
54978;BME280;40873;47.522;19.106;2023-02-28T13:39:11;101415.28;;;7.98;48.83
54978;BME280;40873;47.522;19.106;2023-02-28T13:41:50;101410.50;;;8.11;49.55
54978;BME280;40873;47.522;19.106;2023-02-28T13:49:33;101398.91;;;7.90;48.65
54978;BME280;40873;47.522;19.106;2023-02-28T13:54:43;101397.59;;;8.30;48.63
54978;BME280;40873;47.522;19.106;2023-02-28T13:57:23;101394.19;;;8.27;48.41
54978;BME280;40873;47.522;19.106;2023-02-28T14:00:01;101395.75;;;8.07;48.99
54978;BME280;40873;47.522;19.106;2023-02-28T14:02:40;101386.22;;;8.30;48.58
54978;BME280;40873;47.522;19.106;2023-02-28T14:05:17;101388.72;;;8.08;49.05
54978;BME280;40873;47.522;19.106;2023-02-28T14:07:45;101386.84;;;7.85;49.76
54978;BME280;40873;47.522;19.106;2023-02-28T14:10:43;101384.22;;;7.85;50.38
54978;BME280;40873;47.522;19.106;2023-02-28T14:16:03;101382.41;;;7.87;50.15
54978;BME280;40873;47.522;19.106;2023-02-28T14:34:35;101374.69;;;7.26;52.17
54978;BME280;40873;47.522;19.106;2023-02-28T14:37:04;101370.13;;;7.03;51.71
54978;BME280;40873;47.522;19.106;2023-02-28T14:39:31;101374.09;;;6.87;52.69
54978;BME280;40873;47.522;19.106;2023-02-28T14:41:59;101370.88;;;6.77;53.02
54978;BME280;40873;47.522;19.106;2023-02-28T14:44:31;101369.16;;;6.76;52.89
54978;BME280;40873;47.522;19.106;2023-02-28T14:47:03;101370.19;;;6.71;52.58
54978;BME280;40873;47.522;19.106;2023-02-28T14:49:41;101374.69;;;6.66;52.37
54978;BME280;40873;47.522;19.106;2023-02-28T14:52:21;101377.25;;;6.69;53.42
54978;BME280;40873;47.522;19.106;2023-02-28T14:54:57;101370.94;;;6.76;53.75
54978;BME280;40873;47.522;19.106;2023-02-28T14:59:58;101371.16;;;6.67;52.95
54978;BME280;40873;47.522;19.106;2023-02-28T15:02:29;101375.91;;;6.54;54.02
54978;BME280;40873;47.522;19.106;2023-02-28T15:04:58;101373.31;;;6.52;53.87
54978;BME280;40873;47.522;19.106;2023-02-28T15:07:26;101381.75;;;6.31;54.49
54978;BME280;40873;47.522;19.106;2023-02-28T15:10:19;101381.75;;;6.31;55.08
54978;BME280;40873;47.522;19.106;2023-02-28T15:12:53;101386.13;;;6.30;54.63
54978;BME280;40873;47.522;19.106;2023-02-28T15:15:21;101378.56;;;6.18;54.72
54978;BME280;40873;47.522;19.106;2023-02-28T15:18:03;101383.16;;;6.10;55.42
54978;BME280;40873;47.522;19.106;2023-02-28T15:20:32;101392.22;;;5.98;55.89
54978;BME280;40873;47.522;19.106;2023-02-28T15:23:01;101388.91;;;5.89;56.06